Weather observations for the past three days for
Branson West Muni - Emerson Field
Imperial (Metric)
Date Time (cdt) Wind (mph) Vis. (mi.) Weather Sky Cond. Temperature (ºF) Relative Humidity Wind Chill (°F) Heat Index (°F) Pressure Precipitation (in)
Air Dwpt 6 hour altimeter (in) sea level (mb) 1 hr 3 hr 6 hr
Max. Min.
05 22:15 NE 6 4.00 Fog/Mist NULL 46.4 46.4 100% 44 29.86 0.0
05 21:55 Vrbl 5 G 14 3.00 Light Rain Fog/Mist NULL 46.4 46.4 100% 45 29.86 0.0 0.02
05 21:35 Calm 4.00 Unknown Precip Fog/Mist NULL 46.4 46.4 100% 29.86 0.0
05 21:15 NE 7 3.00 Fog/Mist NULL 46.4 46.4 100% 43 29.83 0.0
05 20:55 Vrbl 7 2.00 Fog/Mist NULL 46.4 46.4 100% 43 29.82 0.0
05 20:35 NE 9 3.00 Fog/Mist NULL 46.4 46.4 100% 42 29.81 0.0
05 20:15 Vrbl 6 3.00 Fog/Mist NULL 46.4 46.4 100% 44 29.82 0.0
05 19:55 N 9 G 22 6.00 Fog/Mist NULL 46.4 44.6 93% 42 29.82 0.0
05 19:35 NE 10 G 18 3.00 Fog/Mist NULL 46.4 46.4 100% 42 29.8 0.0
05 19:15 N 14 1.75 Fog/Mist NULL 46.4 46.4 100% 41 29.8 0.0
05 18:55 NE 7 G 17 2.50 Fog/Mist NULL 48.2 46.4 94% 46 29.78 0.0
05 18:35 NE 13 5.00 Light Rain Fog/Mist NULL 48.2 46.4 94% 43 29.78 0.0
05 18:15 NE 8 G 20 6.00 Fog/Mist NULL 48.2 44.6 87% 45 29.78 0.0
05 17:55 NE 14 G 23 4.00 Fog/Mist NULL 48.2 46.4 94% 43 29.76 0.0
05 17:35 NE 13 G 21 5.00 Fog/Mist NULL 48.2 46.4 94% 43 29.76 0.0
05 17:15 N 9 G 16 4.00 Fog/Mist NULL 50 48.2 94% 47 29.77 0.0
05 16:55 NE 13 G 20 7.00 NULL NULL 50 48.2 94% 46 29.76 0.0
05 16:35 NE 14 G 21 5.00 Fog/Mist NULL 51.8 50 94% 29.75 0.0
05 16:15 Vrbl 6 G 17 7.00 NULL NULL 51.8 50 94% 29.75 0.0
05 15:55 NE 12 G 21 7.00 NULL NULL 51.8 50 94% 29.75 0.0
05 15:35 N 12 G 18 9.00 NULL NULL 51.8 50 94% 29.76 0.0
05 15:15 N 13 G 21 5.00 Fog/Mist NULL 53.6 51.8 94% 29.75 0.0
05 14:55 NE 12 G 18 4.00 Fog/Mist NULL 53.6 53.6 100% 29.74 0.0
05 14:35 NE 9 G 17 1.75 Fog/Mist NULL 53.6 53.6 100% 29.75 0.0
05 14:15 N 9 G 16 1.75 Unknown Precip Fog/Mist NULL 53.6 53.6 100% 29.75 0.0
05 13:55 N 12 G 20 1.50 Fog/Mist NULL 53.6 53.6 100% 29.74 0.0
05 13:35 N 15 1.25 Light Rain Fog/Mist NULL 55.4 55.4 100% 29.74 0.0
05 13:15 NE 10 G 18 0.75 Light Rain Fog/Mist NULL 55.4 55.4 100% 29.73 0.0
05 12:55 NE 7 G 16 2.50 Fog/Mist NULL 57.2 55.4 94% 29.73 0.0
05 12:35 NE 8 G 14 4.00 Fog/Mist NULL 59 57.2 94% 29.73 0.0
05 12:15 N 9 3.00 Light Rain Fog/Mist NULL 60.8 57.2 88% 29.73 0.0
05 11:55 NE 13 G 18 6.00 Fog/Mist NULL 60.8 57.2 88% 29.72 0.0
05 11:35 N 10 G 17 7.00 NULL NULL 60.8 59 94% 29.72 0.0
05 11:15 NE 7 7.00 NULL NULL 64.4 60.8 88% 29.72 0.0
05 10:55 Vrbl 7 8.00 NULL NULL 64.4 60.8 88% 29.72 0.0 0.01
05 10:35 NE 8 G 15 8.00 NULL NULL 64.4 60.8 88% 29.71 0.0
05 10:15 E 12 8.00 NULL NULL 64.4 60.8 88% 29.7 0.0
05 09:55 Vrbl 6 G 13 6.00 Fog/Mist NULL 62.6 60.8 94% 29.71 0.0
05 09:35 Vrbl 6 G 13 7.00 NULL NULL 62.6 60.8 94% 29.71 0.0
05 09:15 E 5 8.00 NULL NULL 60.8 60.8 100% 29.73 0.0
05 08:55 NE 8 8.00 NULL NULL 60.8 60.8 100% 29.71 0.0
05 08:35 E 10 9.00 NULL NULL 60.8 59 94% 29.72 0.0
05 08:15 Vrbl 5 7.00 NULL NULL 60.8 60.8 100% 29.72 0.0
05 07:55 E 3 4.00 Fog/Mist NULL 60.8 60.8 100% 29.71 0.0
05 07:15 Calm 6.00 Fog/Mist NULL 59 59 100% 29.7 0.0
05 06:55 NE 6 7.00 NULL NULL 59 59 100% 29.7 0.0
05 06:35 N 9 6.00 Fog/Mist NULL 59 59 100% 29.69 0.0
05 05:55 SW 5 5.00 Light Rain Fog/Mist NULL 60.8 60.8 100% 29.67 0.0 0.01
05 05:35 Vrbl 5 G 12 2.00 Fog/Mist NULL 60.8 60.8 100% 29.68 0.0
05 05:15 SE 3 4.00 Fog/Mist NULL 59 59 100% 29.68 0.0
05 04:55 Calm 2.50 Fog/Mist NULL 59 59 100% 29.68 0.0 0.03
05 04:35 Calm 0.50 Light Rain Fog NULL 59 59 100% 29.69 0.0
05 04:15 Calm 4.00 Fog/Mist NULL 59 59 100% 29.7 0.0
05 03:55 Calm 1.75 Rain Fog/Mist NULL 60.8 60.8 100% 29.7 0.0 0.14
05 03:35 W 7 4.00 Rain Fog/Mist NULL 60.8 59 94% 29.71 0.0
05 03:15 W 9 4.00 Rain Fog/Mist NULL 60.8 59 94% 29.71 0.0
05 02:55 W 10 5.00 Rain Fog/Mist NULL 60.8 59 94% 29.72 0.0 0.08
05 02:35 W 10 5.00 Light Rain Haze NULL 62.6 57.2 83% 29.71 0.0
05 02:15 SW 7 4.00 Light Rain Haze NULL 62.6 55.4 77% 29.71 0.0
05 01:55 Vrbl 6 8.00 Unknown Precip NULL 64.4 53.6 68% 29.7 0.0
05 01:35 Vrbl 5 9.00 NULL NULL 66.2 53.6 64% 29.7 0.0
05 01:15 Vrbl 6 9.00 NULL NULL 66.2 53.6 64% 29.71 0.0
05 00:55 Vrbl 3 9.00 NULL NULL 66.2 53.6 64% 29.72 0.0
05 00:35 SE 3 9.00 NULL NULL 64.4 53.6 68% 29.71 0.0
05 00:15 Vrbl 5 10.00 NULL NULL 66.2 53.6 64% 29.71 0.0
04 23:55 SE 5 9.00 NULL NULL 66.2 53.6 64% 29.72 0.0
04 23:35 SE 5 9.00 NULL NULL 66.2 53.6 64% 29.72 0.0
04 23:15 SE 5 9.00 NULL NULL 66.2 53.6 64% 29.73 0.0
04 22:55 Vrbl 5 9.00 NULL NULL 66.2 51.8 60% 29.73 0.0
04 22:35 SE 5 10.00 NULL NULL 68 51.8 56% 29.74 0.0
04 22:15 SE 6 9.00 NULL NULL 68 51.8 56% 29.74 0.0
04 21:55 SE 6 9.00 NULL NULL 68 51.8 56% 29.74 0.0
04 21:35 Vrbl 5 9.00 NULL NULL 69.8 51.8 53% 29.74 0.0
04 21:15 Vrbl 5 9.00 NULL NULL 69.8 51.8 53% 29.73 0.0
04 20:55 Vrbl 6 9.00 NULL NULL 69.8 51.8 53% 29.72 0.0
04 20:35 SW 7 10.00 NULL NULL 69.8 53.6 57% 29.71 0.0
04 20:15 Calm 8.00 NULL NULL 69.8 53.6 57% 29.7 0.0
04 19:55 Vrbl 6 8.00 NULL NULL 71.6 53.6 53% 29.69 0.0
04 19:35 Vrbl 3 7.00 NULL NULL 71.6 53.6 53% 29.69 0.0
04 19:15 Vrbl 6 G 12 9.00 NULL NULL 73.4 51.8 47% 29.68 0.0
04 18:55 Vrbl 7 G 13 7.00 NULL NULL 73.4 51.8 47% 29.68 0.0
04 18:35 Vrbl 6 G 21 8.00 NULL NULL 75.2 51.8 44% 78 29.68 0.0
04 18:15 S 10 8.00 NULL NULL 77 50 39% 78 29.69 0.0
04 17:55 SW 12 G 21 9.00 NULL NULL 77 50 39% 78 29.69 0.0
04 17:35 SW 14 G 21 8.00 NULL NULL 78.8 50 37% 79 29.69 0.0
04 17:15 SW 15 G 28 7.00 NULL NULL 78.8 48.2 34% 79 29.69 0.0
04 16:55 SW 18 G 30 9.00 NULL NULL 78.8 48.2 34% 79 29.7 0.0
04 16:35 SW 16 G 25 8.00 NULL NULL 78.8 48.2 34% 79 29.7 0.0
04 16:15 SW 13 G 20 7.00 NULL NULL 78.8 50 37% 79 29.7 0.0
04 15:55 SW 15 G 25 7.00 NULL NULL 78.8 50 37% 79 29.71 0.0
04 15:35 SW 13 G 26 9.00 NULL NULL 78.8 50 37% 79 29.72 0.0
04 15:15 SW 13 G 26 7.00 NULL NULL 78.8 50 37% 79 29.72 0.0
04 14:55 SW 17 G 26 8.00 NULL NULL 78.8 50 37% 79 29.72 0.0
04 14:35 SW 14 G 22 8.00 NULL NULL 78.8 51.8 39% 79 29.73 0.0
04 14:15 SW 15 G 23 8.00 NULL NULL 78.8 51.8 39% 79 29.74 0.0
04 13:55 SW 16 G 26 8.00 NULL NULL 77 51.8 42% 78 29.74 0.0
04 13:35 SW 21 G 31 7.00 Breezy NULL 77 50 39% 78 29.74 0.0
04 13:15 SW 10 G 30 8.00 NULL NULL 77 51.8 42% 78 29.75 0.0
04 12:55 SW 15 G 28 8.00 NULL NULL 78.8 50 37% 79 29.76 0.0
04 12:35 SW 21 G 30 8.00 Breezy NULL 77 50 39% 78 29.76 0.0
04 12:15 SW 14 G 26 7.00 NULL NULL 77 50 39% 78 29.76 0.0
04 11:55 SW 16 7.00 NULL NULL 77 50 39% 78 29.77 0.0
04 11:35 S 12 G 21 7.00 NULL NULL 75.2 48.2 39% 77 29.77 0.0
04 11:15 SW 16 G 24 7.00 NULL NULL 75.2 48.2 39% 77 29.78 0.0
04 10:55 SW 13 G 29 8.00 NULL NULL 73.4 48.2 41% 29.79 0.0
04 10:35 SW 15 G 24 7.00 NULL NULL 73.4 48.2 41% 29.79 0.0
04 10:15 SW 15 G 24 7.00 NULL NULL 71.6 46.4 41% 29.79 0.0
04 09:55 SW 15 G 23 9.00 NULL NULL 71.6 46.4 41% 29.8 0.0
04 09:35 SW 16 8.00 NULL NULL 69.8 46.4 43% 29.81 0.0
04 09:15 SW 9 G 26 8.00 NULL NULL 68 48.2 49% 29.82 0.0
04 08:55 SW 12 8.00 NULL NULL 68 46.4 46% 29.82 0.0
04 08:35 SW 10 G 20 8.00 NULL NULL 66.2 46.4 49% 29.83 0.0
04 08:15 SW 13 8.00 NULL NULL 64.4 46.4 52% 29.83 0.0
04 07:55 SW 9 G 18 9.00 NULL NULL 64.4 46.4 52% 29.83 0.0
04 07:35 SW 7 G 15 9.00 NULL NULL 62.6 46.4 56% 29.83 0.0
04 07:15 SW 8 G 15 8.00 NULL NULL 62.6 44.6 52% 29.83 0.0
04 06:55 SW 8 G 15 9.00 NULL NULL 62.6 44.6 52% 29.83 0.0
04 06:35 SW 8 9.00 NULL NULL 62.6 44.6 52% 29.83 0.0
04 06:15 SW 9 8.00 NULL NULL 62.6 44.6 52% 29.82 0.0
04 05:55 SW 7 9.00 NULL NULL 62.6 44.6 52% 29.82 0.0
04 05:35 SW 7 G 15 9.00 NULL NULL 62.6 44.6 52% 29.82 0.0
04 05:15 SW 10 9.00 NULL NULL 62.6 44.6 52% 29.83 0.0
04 04:55 Vrbl 7 G 17 9.00 NULL NULL 62.6 44.6 52% 29.83 0.0
04 04:35 SW 8 G 16 9.00 NULL NULL 62.6 44.6 52% 29.83 0.0
04 04:15 SW 9 G 15 9.00 NULL NULL 62.6 44.6 52% 29.83 0.0
04 03:55 Vrbl 7 G 14 9.00 NULL NULL 62.6 44.6 52% 29.83 0.0
04 03:35 Vrbl 7 G 15 9.00 NULL NULL 62.6 44.6 52% 29.84 0.0
04 03:15 SW 6 9.00 NULL NULL 62.6 44.6 52% 29.84 0.0
04 02:55 Vrbl 6 G 12 9.00 NULL NULL 64.4 44.6 49% 29.85 0.0
04 02:35 Vrbl 6 G 14 10.00 NULL NULL 64.4 44.6 49% 29.85 0.0
04 02:15 SW 5 9.00 NULL NULL 64.4 44.6 49% 29.86 0.0
04 01:55 SW 7 10.00 NULL NULL 64.4 44.6 49% 29.86 0.0
04 01:35 Vrbl 7 9.00 NULL NULL 64.4 44.6 49% 29.87 0.0
04 01:15 SW 6 9.00 NULL NULL 66.2 44.6 46% 29.87 0.0
04 00:55 SW 7 G 16 9.00 NULL NULL 66.2 44.6 46% 29.88 0.0
04 00:35 Vrbl 6 G 15 10.00 NULL NULL 66.2 44.6 46% 29.88 0.0
04 00:15 SW 8 G 14 9.00 NULL NULL 66.2 44.6 46% 29.88 0.0
03 23:55 SW 7 G 15 9.00 NULL NULL 66.2 44.6 46% 29.88 0.0
03 23:35 SW 9 9.00 NULL NULL 68 44.6 43% 29.88 0.0
03 23:15 SW 7 9.00 NULL NULL 68 44.6 43% 29.89 0.0
03 22:55 SW 10 G 17 9.00 NULL NULL 68 44.6 43% 29.89 0.0
03 22:35 SW 8 9.00 NULL NULL 68 44.6 43% 29.89 0.0
03 22:15 SW 8 G 14 9.00 NULL NULL 68 44.6 43% 29.89 0.0
03 21:55 S 7 9.00 NULL NULL 68 46.4 46% 29.89 0.0
03 21:35 S 5 9.00 NULL NULL 68 46.4 46% 29.89 0.0
03 21:15 Vrbl 5 9.00 NULL NULL 68 46.4 46% 29.89 0.0
03 20:55 Vrbl 5 9.00 NULL NULL 68 46.4 46% 29.89 0.0
03 20:35 Vrbl 5 9.00 NULL NULL 69.8 44.6 40% 29.88 0.0
03 20:15 Vrbl 6 8.00 NULL NULL 71.6 44.6 38% 29.88 0.0
03 19:55 Vrbl 5 G 12 8.00 NULL NULL 71.6 44.6 38% 29.88 0.0
03 19:35 SW 7 8.00 NULL NULL 73.4 44.6 36% 29.88 0.0
03 19:15 SW 8 7.00 NULL NULL 75.2 42.8 31% 77 29.88 0.0
03 18:55 SW 8 G 15 8.00 NULL NULL 77 42.8 30% 78 29.89 0.0
03 18:35 SW 7 G 13 9.00 NULL NULL 77 42.8 30% 78 29.89 0.0
03 18:15 SW 9 9.00 NULL NULL 77 41 28% 78 29.9 0.0
03 17:55 SW 15 G 24 8.00 NULL NULL 77 39.2 26% 77 29.9 0.0
03 17:35 SW 10 G 16 8.00 NULL NULL 78.8 41 26% 78 29.9 0.0
03 17:15 SW 10 G 17 7.00 NULL NULL 78.8 39.2 24% 78 29.91 0.0
03 16:55 SW 10 8.00 NULL NULL 78.8 39.2 24% 78 29.91 0.0
03 16:35 SW 10 G 20 7.00 NULL NULL 78.8 39.2 24% 78 29.91 0.0
03 16:15 SW 15 G 22 8.00 NULL NULL 78.8 39.2 24% 78 29.93 0.0
03 15:55 W 9 G 18 9.00 NULL NULL 78.8 41 26% 78 29.94 0.0
03 15:35 W 12 G 20 8.00 NULL NULL 78.8 41 26% 78 29.94 0.0
03 15:15 SW 9 7.00 NULL NULL 78.8 41 26% 78 29.95 0.0
03 14:55 SW 12 G 20 8.00 NULL NULL 77 41 28% 78 29.96 0.0
03 14:35 W 12 G 17 7.00 NULL NULL 77 42.8 30% 78 29.97 0.0
03 13:55 SW 9 G 17 9.00 NULL NULL 77 42.8 30% 78 29.99 0.0
03 13:35 Vrbl 7 G 14 9.00 NULL NULL 75.2 44.6 34% 77 30 0.0
03 13:15 Vrbl 7 G 14 7.00 NULL NULL 75.2 44.6 34% 77 30.01 0.0
03 12:55 W 12 G 20 7.00 NULL NULL 73.4 42.8 33% 30.02 0.0
03 12:35 Vrbl 7 G 16 7.00 NULL NULL 73.4 44.6 36% 30.03 0.0
03 12:15 S 8 G 16 8.00 NULL NULL 71.6 44.6 38% 30.04 0.0
03 11:55 SW 8 G 17 7.00 NULL NULL 69.8 44.6 40% 30.04 0.0
03 11:35 SW 12 G 20 8.00 NULL NULL 69.8 42.8 38% 30.05 0.0
03 11:15 S 13 8.00 NULL NULL 68 41 38% 30.05 0.0
03 10:55 SW 14 8.00 NULL NULL 66.2 41 40% 30.06 0.0
03 10:35 SW 7 8.00 NULL NULL 64.4 39.2 40% 30.07 0.0
03 10:15 Vrbl 7 9.00 NULL NULL 62.6 39.2 42% 30.08 0.0
03 09:55 SW 7 8.00 NULL NULL 60.8 39.2 45% 30.08 0.0
03 09:35 SW 6 8.00 NULL NULL 59 39.2 48% 30.09 0.0
03 09:15 S 5 9.00 NULL NULL 55.4 39.2 55% 30.09 0.0
03 08:55 Calm 9.00 NULL NULL 53.6 41 63% 30.09 0.0
03 08:35 Calm 9.00 NULL NULL 51.8 42.8 72% 30.1 0.0
03 08:15 Calm 9.00 NULL NULL 50 44.6 82% 30.1 0.0
03 07:55 Calm 8.00 NULL NULL 46.4 44.6 93% 30.1 0.0
03 07:35 SW 5 8.00 NULL NULL 44.6 42.8 93% 43 30.1 0.0
03 07:15 Calm 8.00 NULL NULL 44.6 44.6 100% 30.09 0.0
03 06:55 Calm 9.00 NULL NULL 42.8 42.8 100% 30.08 0.0
03 06:35 Calm 7.00 NULL NULL 41 41 100% 30.09 0.0
03 06:15 Calm 6.00 Fog/Mist NULL 41 41 100% 30.09 0.0
03 05:55 Calm 9.00 NULL NULL 41 41 100% 30.09 0.0
03 05:35 Calm 9.00 NULL NULL 42.8 42.8 100% 30.08 0.0
03 05:15 Calm 9.00 NULL NULL 42.8 41 93% 30.08 0.0
03 04:55 Calm 9.00 NULL NULL 42.8 41 93% 30.08 0.0
03 04:35 Calm 9.00 NULL NULL 42.8 41 93% 30.09 0.0
03 04:15 Calm 9.00 NULL NULL 44.6 41 87% 30.09 0.0
03 03:55 Calm 9.00 NULL NULL 44.6 41 87% 30.1 0.0
03 03:35 Calm 9.00 NULL NULL 44.6 41 87% 30.1 0.0
03 03:15 Calm 9.00 NULL NULL 44.6 39.2 81% 30.1 0.0
03 02:55 Calm 9.00 NULL NULL 44.6 39.2 81% 30.1 0.0
03 02:35 Calm 10.00 NULL NULL 44.6 39.2 81% 30.11 0.0
03 02:15 Calm 9.00 NULL NULL 44.6 37.4 76% 30.11 0.0
03 01:55 Calm 9.00 NULL NULL 44.6 35.6 71% 30.11 0.0
03 01:35 Calm 10.00 NULL NULL 44.6 35.6 71% 30.12 0.0
03 01:15 Calm 9.00 NULL NULL 44.6 35.6 71% 30.12 0.0
03 00:55 Calm 9.00 NULL NULL 44.6 35.6 71% 30.13 0.0
03 00:35 Calm 10.00 NULL NULL 46.4 35.6 66% 30.12 0.0
03 00:15 Calm 9.00 NULL NULL 46.4 35.6 66% 30.12 0.0
02 23:55 Calm 9.00 NULL NULL 48.2 35.6 62% 30.12 0.0
02 23:35 Calm 9.00 NULL NULL 48.2 33.8 58% 30.12 0.0
02 23:15 Calm 10.00 NULL NULL 48.2 33.8 58% 30.12 0.0
02 22:55 Calm 9.00 NULL NULL 48.2 33.8 58% 30.12 0.0
Date Time (cdt) Wind (mph) Vis. (mi.) Weather Sky Cond. Air Dwpt Max. Min. Relative Humidity Wind Chill (°F) Heat Index (°F) altimeter (in) sea level (mb) 1 hr 3 hr 6 hr
6 hour
Temperature (ºF) Pressure Precipitation (in)